createdAt,value
2023-04-03T00:01:50.960Z,1.10
2023-04-03T00:04:19.964Z,0.83
2023-04-03T00:06:49.036Z,0.93
2023-04-03T00:09:18.308Z,1.00
2023-04-03T00:11:48.124Z,1.10
2023-04-03T00:14:17.297Z,0.87
2023-04-03T00:16:47.998Z,0.77
2023-04-03T00:19:17.370Z,0.90
2023-04-03T00:21:46.658Z,0.97
2023-04-03T00:24:15.772Z,0.70
2023-04-03T00:26:45.092Z,1.00
2023-04-03T00:29:14.128Z,1.30
2023-04-03T00:31:43.268Z,1.10
2023-04-03T00:34:13.752Z,1.17
2023-04-03T00:36:42.969Z,1.13
2023-04-03T00:39:12.016Z,0.90
2023-04-03T00:41:41.433Z,1.10
2023-04-03T00:45:22.552Z,1.00
2023-04-03T00:47:52.400Z,1.10
2023-04-03T00:50:22.894Z,1.30
2023-04-03T00:52:53.870Z,1.27
2023-04-03T00:55:23.546Z,0.93
2023-04-03T00:57:53.750Z,1.30
2023-04-03T01:00:27.135Z,1.40
2023-04-03T01:02:59.144Z,1.40
2023-04-03T01:05:30.428Z,1.37
2023-04-03T01:08:00.729Z,1.53
2023-04-03T01:10:31.317Z,1.40
2023-04-03T01:13:04.316Z,1.10
2023-04-03T01:15:36.101Z,1.17
2023-04-03T01:18:06.498Z,1.37
2023-04-03T01:21:23.460Z,1.60
2023-04-03T01:24:08.292Z,1.77
2023-04-03T01:26:37.596Z,1.20
2023-04-03T01:29:06.811Z,1.50
2023-04-03T01:31:51.921Z,1.80
2023-04-03T01:34:25.486Z,1.70
2023-04-03T01:36:55.534Z,2.00
2023-04-03T01:39:28.385Z,1.83
2023-04-03T01:41:57.484Z,1.90
2023-04-03T01:44:33.915Z,1.83
2023-04-03T01:47:04.755Z,2.03
2023-04-03T01:49:33.778Z,1.80
2023-04-03T01:52:03.111Z,1.50
2023-04-03T01:54:32.225Z,1.67
2023-04-03T01:57:01.290Z,1.80
2023-04-03T01:59:30.503Z,1.60
2023-04-03T02:01:59.664Z,1.50
2023-04-03T02:04:30.235Z,1.90
2023-04-03T02:06:59.367Z,1.50
2023-04-03T02:09:28.455Z,1.30
2023-04-03T02:11:57.690Z,1.57
2023-04-03T02:14:28.537Z,1.30
2023-04-03T02:16:57.764Z,1.50
2023-04-03T02:19:26.772Z,1.60
2023-04-03T02:21:57.130Z,1.60
2023-04-03T02:24:26.262Z,1.37
2023-04-03T02:26:55.477Z,1.33
2023-04-03T02:29:24.822Z,1.50
2023-04-03T02:31:54.207Z,1.50
2023-04-03T02:34:24.679Z,1.20
2023-04-03T02:36:56.250Z,1.57
2023-04-03T02:39:25.300Z,1.40
2023-04-03T02:41:54.500Z,1.40
2023-04-03T02:44:26.971Z,1.50
2023-04-03T02:46:56.144Z,1.60
2023-04-03T02:49:26.115Z,1.40
2023-04-03T02:51:56.527Z,1.67
2023-04-03T02:54:28.843Z,1.50
2023-04-03T02:57:01.142Z,1.60
2023-04-03T02:59:30.441Z,1.60
2023-04-03T03:01:59.654Z,1.80
2023-04-03T03:04:29.000Z,1.70
2023-04-03T03:07:00.713Z,1.60
2023-04-03T03:09:31.952Z,1.40
2023-04-03T03:12:01.312Z,1.83
2023-04-03T03:14:32.679Z,1.60
2023-04-03T03:17:01.760Z,1.87
2023-04-03T03:19:30.897Z,1.57
2023-04-03T03:22:01.251Z,1.70
2023-04-03T03:24:30.491Z,1.47
2023-04-03T03:26:59.486Z,1.80
2023-04-03T03:29:28.520Z,1.80
2023-04-03T03:31:57.625Z,1.63
2023-04-03T03:34:26.686Z,1.70
2023-04-03T03:36:56.124Z,1.70
2023-04-03T03:39:26.606Z,1.30
2023-04-03T03:41:55.729Z,1.10
2023-04-03T03:44:24.903Z,1.20
2023-04-03T03:46:55.640Z,1.20
2023-04-03T03:49:24.851Z,1.30
2023-04-03T03:51:54.201Z,1.60
2023-04-03T03:54:23.594Z,1.60
2023-04-03T03:56:55.453Z,2.00
2023-04-03T03:59:27.242Z,1.60
2023-04-03T04:01:56.562Z,1.60
2023-04-03T04:04:27.784Z,1.60
2023-04-03T04:06:57.835Z,1.70
2023-04-03T04:09:26.924Z,1.40
2023-04-03T04:11:57.561Z,1.30
2023-04-03T04:14:29.285Z,1.60
2023-04-03T04:17:03.400Z,1.33
2023-04-03T04:19:32.728Z,1.33
2023-04-03T04:22:01.846Z,1.50
2023-04-03T04:24:36.143Z,1.40
2023-04-03T04:27:07.950Z,1.30
2023-04-03T04:29:38.268Z,1.40
2023-04-03T04:32:09.915Z,1.70
2023-04-03T04:34:39.248Z,1.13
2023-04-03T04:37:08.727Z,1.63
2023-04-03T04:39:40.130Z,1.77
2023-04-03T04:42:14.661Z,1.67
2023-04-03T04:44:46.791Z,1.43
2023-04-03T04:47:17.149Z,1.50
2023-04-03T04:49:48.501Z,1.50
2023-04-03T04:52:18.031Z,1.40
2023-04-03T04:54:48.044Z,1.33
2023-04-03T04:57:18.866Z,1.47
2023-04-03T04:59:49.425Z,1.27
2023-04-03T05:02:18.466Z,1.30
2023-04-03T05:04:48.070Z,1.40
2023-04-03T05:07:23.058Z,1.50
2023-04-03T05:09:52.209Z,1.47
2023-04-03T05:12:23.068Z,1.30
2023-04-03T05:14:57.910Z,1.10
2023-04-03T05:17:28.756Z,1.10
2023-04-03T05:19:59.477Z,1.30
2023-04-03T05:22:29.898Z,1.30
2023-04-03T05:25:05.098Z,1.10
2023-04-03T05:27:36.029Z,1.60
2023-04-03T05:30:06.676Z,1.30
2023-04-03T05:32:37.149Z,1.20
2023-04-03T05:35:17.637Z,1.33
2023-04-03T05:37:49.314Z,1.00
2023-04-03T05:40:19.607Z,1.13
2023-04-03T05:42:54.506Z,1.53
2023-04-03T05:45:25.946Z,1.30
2023-04-03T05:47:55.517Z,1.60
2023-04-03T05:50:27.592Z,1.53
2023-04-03T05:53:00.076Z,1.60
2023-04-03T05:55:31.623Z,1.33
2023-04-03T05:58:02.114Z,1.73
2023-04-03T06:00:31.297Z,1.90
2023-04-03T06:03:04.551Z,1.90
2023-04-03T06:05:33.743Z,2.50
2023-04-03T06:08:02.848Z,2.37
2023-04-03T06:10:33.590Z,2.20
2023-04-03T06:13:07.276Z,2.17
2023-04-03T06:15:36.323Z,2.40
2023-04-03T06:18:05.623Z,2.47
2023-04-03T06:20:35.202Z,2.30
2023-04-03T06:23:04.280Z,2.50
2023-04-03T06:25:34.648Z,2.37
2023-04-03T06:28:03.692Z,2.20
2023-04-03T06:30:34.291Z,2.20
2023-04-03T06:33:03.547Z,2.43
2023-04-03T06:35:32.677Z,2.30
2023-04-03T06:38:01.659Z,2.83
2023-04-03T06:40:30.740Z,2.40
2023-04-03T06:42:59.812Z,2.33
2023-04-03T06:45:28.776Z,2.13
2023-04-03T06:47:59.314Z,1.80
2023-04-03T06:50:28.465Z,2.13
2023-04-03T06:52:57.722Z,2.10
2023-04-03T06:55:27.081Z,2.20
2023-04-03T06:57:56.252Z,2.00
2023-04-03T07:00:25.910Z,1.90
2023-04-03T07:02:54.902Z,2.07
2023-04-03T07:05:25.754Z,2.00
2023-04-03T07:07:54.751Z,1.80
2023-04-03T07:10:23.824Z,2.17
2023-04-03T07:12:53.659Z,2.43
2023-04-03T07:15:22.962Z,2.17
2023-04-03T07:17:51.928Z,2.03
2023-04-03T07:20:21.052Z,2.00
2023-04-03T07:22:51.564Z,1.97
2023-04-03T07:25:20.976Z,1.80
2023-04-03T07:27:50.176Z,1.80
2023-04-03T07:30:19.775Z,2.10
2023-04-03T07:32:48.910Z,2.00
2023-04-03T07:35:18.445Z,2.03
2023-04-03T07:37:47.558Z,1.90
2023-04-03T07:40:19.612Z,1.67
2023-04-03T07:42:49.297Z,1.50
2023-04-03T07:45:18.512Z,1.47
2023-04-03T07:47:47.856Z,1.27
2023-04-03T07:50:17.349Z,1.10
2023-04-03T07:52:46.575Z,1.70
2023-04-03T07:55:17.077Z,1.30
2023-04-03T07:57:46.180Z,1.20
2023-04-03T08:00:18.483Z,1.70
2023-04-03T08:02:51.497Z,1.00
2023-04-03T08:05:21.573Z,1.13
2023-04-03T08:07:50.661Z,1.00
2023-04-03T08:10:21.214Z,1.20
2023-04-03T08:12:50.450Z,1.27
2023-04-03T08:15:20.000Z,1.00
2023-04-03T08:17:49.227Z,1.30
2023-04-03T08:20:18.680Z,1.20
2023-04-03T08:22:49.922Z,1.27
2023-04-03T08:25:20.446Z,0.90
2023-04-03T08:27:49.450Z,1.20
2023-04-03T08:30:18.550Z,1.10
2023-04-03T08:32:47.575Z,1.10
2023-04-03T08:35:16.949Z,1.20
2023-04-03T08:37:45.927Z,1.53
2023-04-03T08:40:18.720Z,1.30
2023-04-03T08:43:07.093Z,1.00
2023-04-03T08:45:47.041Z,1.20
2023-04-03T08:48:22.717Z,1.40
2023-04-03T08:50:57.152Z,1.33
2023-04-03T08:53:33.491Z,0.90
2023-04-03T08:56:05.673Z,0.90
2023-04-03T08:58:47.974Z,1.00
2023-04-03T09:01:22.920Z,1.10
2023-04-03T09:03:51.984Z,0.93
2023-04-03T09:06:25.214Z,1.10
2023-04-03T09:09:05.793Z,1.30
2023-04-03T09:11:48.412Z,1.10
2023-04-03T09:14:28.535Z,0.93
2023-04-03T09:17:03.235Z,1.17
2023-04-03T09:19:44.094Z,1.00
2023-04-03T09:22:19.997Z,0.83
2023-04-03T09:24:58.279Z,1.73
2023-04-03T09:27:27.499Z,1.43
2023-04-03T09:29:59.488Z,1.50
2023-04-03T09:32:32.535Z,0.90
2023-04-03T09:35:19.233Z,0.93
2023-04-03T09:37:52.109Z,1.10
2023-04-03T09:40:37.019Z,0.90
2023-04-03T09:43:28.914Z,1.10
2023-04-03T09:46:23.350Z,1.00
2023-04-03T09:49:08.213Z,1.03
2023-04-03T09:51:39.462Z,0.80
2023-04-03T09:54:34.518Z,0.83
2023-04-03T09:57:09.855Z,0.90
2023-04-03T09:59:45.066Z,0.80
2023-04-03T10:02:34.645Z,1.10
2023-04-03T10:07:46.413Z,0.80
2023-04-03T10:10:24.962Z,0.90
2023-04-03T10:13:09.402Z,0.90
2023-04-03T10:15:46.084Z,1.00
2023-04-03T10:18:34.894Z,1.10
2023-04-03T10:21:24.693Z,1.10
2023-04-03T10:24:13.303Z,0.90
2023-04-03T10:26:52.794Z,0.80
2023-04-03T10:29:42.048Z,1.00
2023-04-03T10:32:52.492Z,1.03
2023-04-03T10:35:39.811Z,0.90
2023-04-03T10:38:20.450Z,1.13
2023-04-03T10:40:57.729Z,1.07
2023-04-03T10:43:36.224Z,1.23
2023-04-03T10:46:50.709Z,2.27
